Time;durP1;ratioP1;P1;durP2;ratioP2;P2;SDS_P1;SDS_P2;PMS_P1;PMS_P2;Temp;Humidity;BMP_temperature;BMP_pressure;BME280_temperature;BME280_humidity;BME280_pressure;Samples;Min_cycle;Max_cycle;Signal;HPM_P1;HPM_P2
2023/11/03 00:00:37;;;;;;;8.30;2.03;;;8.30;99.90;;;;;;5039436;28;20504;-92
2023/11/03 00:03:06;;;;;;;11.95;2.08;;;8.30;99.90;;;;;;5052455;28;20016;-91
2023/11/03 00:05:31;;;;;;;11.35;1.60;;;8.30;99.90;;;;;;5051366;28;20021;-92
2023/11/03 00:07:57;;;;;;;9.82;1.63;;;8.20;99.90;;;;;;5050919;28;20046;-92
2023/11/03 00:10:23;;;;;;;6.00;1.70;;;8.20;99.90;;;;;;5052503;28;20446;-90
2023/11/03 00:12:49;;;;;;;5.32;1.25;;;8.20;99.90;;;;;;5053190;28;20029;-93
2023/11/03 00:15:15;;;;;;;5.13;1.38;;;8.30;99.90;;;;;;5049017;28;20032;-90
2023/11/03 00:17:41;;;;;;;3.80;1.13;;;8.30;99.90;;;;;;5034916;28;20609;-90
2023/11/03 00:20:07;;;;;;;9.32;1.75;;;8.30;99.90;;;;;;5051779;28;20028;-92
2023/11/03 00:22:33;;;;;;;11.55;1.70;;;8.20;99.90;;;;;;5052218;28;20029;-92
2023/11/03 00:25:00;;;;;;;6.68;1.60;;;8.20;99.90;;;;;;5051146;28;20082;-91
2023/11/03 00:27:26;;;;;;;9.90;2.03;;;8.20;99.90;;;;;;5050868;28;20049;-92
2023/11/03 00:29:54;;;;;;;8.45;2.22;;;8.20;99.90;;;;;;5048184;28;20029;-92
2023/11/03 00:32:21;;;;;;;6.93;1.20;;;8.10;99.90;;;;;;5034981;28;20029;-92
2023/11/03 00:34:47;;;;;;;5.65;1.58;;;8.10;99.90;;;;;;5048345;28;20083;-90
2023/11/03 00:37:12;;;;;;;8.02;1.67;;;8.10;99.90;;;;;;5032362;28;20028;-91
2023/11/03 00:39:40;;;;;;;8.75;1.65;;;8.10;99.90;;;;;;5048685;28;20480;-93
2023/11/03 00:42:06;;;;;;;7.18;1.48;;;8.50;99.90;;;;;;5035381;28;20365;-91
2023/11/03 00:44:34;;;;;;;7.78;1.73;;;8.10;99.90;;;;;;5052750;28;20024;-91
2023/11/03 00:46:59;;;;;;;3.10;1.23;;;8.10;99.90;;;;;;5050605;28;20068;-92
2023/11/03 00:49:25;;;;;;;9.40;1.50;;;8.20;99.90;;;;;;5051656;28;20064;-92
2023/11/03 00:51:50;;;;;;;14.50;2.65;;;8.10;99.90;;;;;;5051588;28;20033;-92
2023/11/03 00:54:16;;;;;;;4.25;1.35;;;8.10;99.90;;;;;;5052851;28;20110;-91
2023/11/03 00:56:42;;;;;;;10.73;1.92;;;8.00;99.90;;;;;;5052353;28;20103;-92
2023/11/03 00:59:08;;;;;;;6.18;1.60;;;8.10;99.90;;;;;;5052397;28;20032;-90
2023/11/03 01:01:34;;;;;;;5.70;1.48;;;8.20;99.90;;;;;;5053646;28;20021;-92
2023/11/03 01:04:00;;;;;;;5.15;1.33;;;8.10;99.90;;;;;;5053026;28;20049;-91
2023/11/03 01:06:26;;;;;;;11.27;1.85;;;8.10;99.90;;;;;;5051145;28;20045;-92
2023/11/03 01:08:52;;;;;;;13.95;1.92;;;8.00;99.90;;;;;;5034404;28;20507;-92
2023/11/03 01:11:19;;;;;;;4.75;1.80;;;8.00;99.90;;;;;;5049996;28;20026;-92
2023/11/03 01:13:45;;;;;;;5.95;1.50;;;8.10;99.90;;;;;;5055384;28;20408;-91
2023/11/03 01:16:11;;;;;;;4.22;1.58;;;8.10;99.90;;;;;;5053192;28;20071;-91
2023/11/03 01:18:42;;;;;;;11.88;1.80;;;8.10;99.90;;;;;;5054775;28;20037;-93
2023/11/03 01:21:15;;;;;;;5.97;1.35;;;8.00;99.90;;;;;;5055857;28;20025;-91
2023/11/03 01:23:48;;;;;;;6.95;1.40;;;8.00;99.90;;;;;;5038557;28;20033;-93
2023/11/03 01:26:15;;;;;;;6.95;1.10;;;8.00;99.90;;;;;;5054814;28;20029;-92
2023/11/03 01:28:41;;;;;;;7.70;1.33;;;8.00;99.90;;;;;;5052159;28;20017;-92
2023/11/03 01:31:08;;;;;;;8.13;1.70;;;8.00;99.90;;;;;;5055455;28;20550;-92
2023/11/03 01:33:34;;;;;;;10.23;1.90;;;8.00;99.90;;;;;;5052927;28;20033;-91
2023/11/03 01:36:04;;;;;;;8.48;1.65;;;8.00;99.90;;;;;;5053969;28;20036;-92
2023/11/03 01:38:31;;;;;;;7.18;1.58;;;8.00;99.90;;;;;;5055968;28;20021;-92
2023/11/03 01:40:59;;;;;;;7.55;1.60;;;8.00;99.90;;;;;;5054957;28;20396;-90
2023/11/03 01:43:25;;;;;;;5.47;1.30;;;8.00;99.90;;;;;;5055264;28;20127;-90
2023/11/03 01:45:50;;;;;;;10.18;1.92;;;8.00;99.90;;;;;;5054740;28;20460;-91
2023/11/03 01:48:16;;;;;;;6.18;1.63;;;8.00;99.90;;;;;;5054416;28;20041;-92
2023/11/03 01:50:42;;;;;;;4.88;1.30;;;8.00;99.90;;;;;;5054748;28;20027;-91
2023/11/03 01:53:12;;;;;;;5.93;1.45;;;8.00;99.90;;;;;;5052446;28;20025;-90
2023/11/03 01:55:38;;;;;;;;;;;6.60;99.90;;;;;;5038948;28;20044;-91
2023/11/03 01:58:04;;;;;;;7.75;1.80;;;8.10;99.90;;;;;;5053245;28;19904;-92
2023/11/03 02:00:30;;;;;;;12.00;2.33;;;8.00;99.90;;;;;;5054775;28;20025;-93
2023/11/03 02:02:55;;;;;;;8.63;2.15;;;8.00;99.90;;;;;;5055160;28;20025;-92
2023/11/03 02:05:21;;;;;;;7.65;1.40;;;8.00;99.90;;;;;;5055257;28;20056;-90
2023/11/03 02:07:48;;;;;;;6.03;1.88;;;7.90;99.90;;;;;;5054493;28;20021;-92
2023/11/03 02:10:14;;;;;;;5.13;1.42;;;7.90;99.90;;;;;;5053807;28;20029;-92
2023/11/03 02:12:40;;;;;;;6.22;1.20;;;7.90;99.90;;;;;;5055025;28;20411;-92
2023/11/03 02:15:06;;;;;;;8.48;1.35;;;8.00;99.90;;;;;;5037915;28;20025;-92
2023/11/03 02:17:32;;;;;;;6.03;1.25;;;8.00;99.90;;;;;;5053238;28;20087;-91
2023/11/03 02:19:58;;;;;;;9.70;1.42;;;8.00;99.90;;;;;;5053171;28;20116;-91
2023/11/03 02:22:24;;;;;;;7.18;1.30;;;8.00;99.90;;;;;;5036443;28;20453;-90
2023/11/03 02:24:49;;;;;;;5.05;1.10;;;8.00;99.90;;;;;;5054370;28;20099;-90
2023/11/03 02:27:15;;;;;;;9.57;1.30;;;8.00;99.90;;;;;;5053368;28;20024;-92
2023/11/03 02:29:41;;;;;;;7.57;1.30;;;8.20;99.90;;;;;;5054440;28;20091;-90
2023/11/03 02:32:07;;;;;;;8.45;1.40;;;9.30;99.90;;;;;;5054440;28;20086;-90
2023/11/03 02:34:32;;;;;;;4.82;1.20;;;8.30;99.90;;;;;;5053344;28;20031;-92
2023/11/03 02:36:58;;;;;;;5.95;1.20;;;8.40;99.90;;;;;;5052724;28;20021;-90
2023/11/03 02:39:25;;;;;;;3.75;1.20;;;8.40;99.90;;;;;;5052491;28;20033;-91
2023/11/03 02:41:51;;;;;;;4.57;1.20;;;8.40;99.90;;;;;;5052338;28;20506;-89
2023/11/03 02:44:17;;;;;;;3.53;0.90;;;8.40;99.90;;;;;;5035812;28;20029;-91
2023/11/03 02:46:44;;;;;;;4.70;1.10;;;8.50;99.90;;;;;;5051659;28;20384;-91
2023/11/03 02:49:10;;;;;;;8.30;1.30;;;8.50;99.90;;;;;;5052053;28;20033;-90
2023/11/03 02:51:36;;;;;;;10.73;1.70;;;8.40;99.90;;;;;;5056210;28;20035;-90
2023/11/03 02:54:02;;;;;;;3.25;1.05;;;8.40;99.90;;;;;;5050339;28;20029;-91
2023/11/03 02:56:27;;;;;;;4.40;1.08;;;8.40;99.90;;;;;;5021295;28;20119;-91
2023/11/03 02:58:53;;;;;;;5.50;1.20;;;8.20;99.90;;;;;;5057010;28;20036;-90
2023/11/03 03:01:31;;;;;;;5.80;1.20;;;8.30;99.90;;;;;;5051011;28;20024;-90
2023/11/03 03:03:57;;;;;;;5.35;1.95;;;8.30;99.90;;;;;;5038164;28;20077;-89
2023/11/03 03:06:24;;;;;;;7.05;1.35;;;8.30;99.90;;;;;;5044235;28;20477;-91
2023/11/03 03:08:50;;;;;;;5.05;1.20;;;8.20;99.90;;;;;;5050808;28;20079;-90
2023/11/03 03:11:15;;;;;;;6.65;1.30;;;8.10;99.90;;;;;;5051553;28;20108;-89
2023/11/03 03:13:43;;;;;;;9.27;1.40;;;8.10;99.90;;;;;;5050357;28;20120;-90
2023/11/03 03:16:09;;;;;;;6.22;1.38;;;8.10;99.90;;;;;;5051138;28;20111;-92
2023/11/03 03:18:35;;;;;;;4.82;1.13;;;8.10;99.90;;;;;;5047382;28;20473;-90
2023/11/03 03:21:01;;;;;;;8.07;1.20;;;8.10;99.90;;;;;;5033675;28;20048;-90
2023/11/03 03:23:27;;;;;;;8.68;1.40;;;8.20;99.90;;;;;;5043371;28;20486;-90
2023/11/03 03:25:53;;;;;;;5.45;1.20;;;8.20;99.90;;;;;;5031960;28;20480;-90
2023/11/03 03:28:19;;;;;;;4.10;1.20;;;8.20;99.90;;;;;;5048595;28;20070;-91
2023/11/03 03:30:44;;;;;;;8.38;1.42;;;8.20;99.90;;;;;;5050595;28;20029;-90
2023/11/03 03:33:10;;;;;;;3.15;1.10;;;8.20;99.90;;;;;;5028809;28;20927;-90
2023/11/03 03:35:36;;;;;;;4.03;1.30;;;8.30;99.90;;;;;;5046652;28;20056;-89
2023/11/03 03:38:01;;;;;;;8.45;1.20;;;7.60;99.90;;;;;;5030923;28;20025;-90
2023/11/03 03:40:27;;;;;;;3.22;1.00;;;8.40;99.90;;;;;;5050632;28;20384;-90
2023/11/03 03:42:52;;;;;;;7.43;1.85;;;8.40;99.90;;;;;;5050494;28;20044;-90
2023/11/03 03:45:18;;;;;;;4.07;1.30;;;8.50;99.90;;;;;;5050142;28;20029;-90
2023/11/03 03:47:44;;;;;;;3.55;1.05;;;8.50;99.90;;;;;;5035853;28;20109;-90
2023/11/03 03:50:10;;;;;;;5.13;1.23;;;8.50;99.90;;;;;;5007143;28;20120;-91
2023/11/03 03:52:35;;;;;;;8.43;1.40;;;8.60;99.90;;;;;;5026759;28;20505;-91
2023/11/03 03:55:01;;;;;;;6.70;1.50;;;8.60;99.90;;;;;;5018724;28;20027;-91
2023/11/03 03:57:27;;;;;;;5.95;1.33;;;8.60;99.90;;;;;;5008698;28;20050;-91
2023/11/03 03:59:53;;;;;;;7.00;1.73;;;8.70;99.90;;;;;;5007583;28;20029;-89
2023/11/03 04:02:19;;;;;;;5.22;1.33;;;8.60;99.90;;;;;;5010686;28;20038;-89
2023/11/03 04:04:44;;;;;;;4.13;1.30;;;8.70;99.90;;;;;;5026105;28;20100;-88
2023/11/03 04:07:10;;;;;;;7.53;1.40;;;8.70;99.90;;;;;;5009949;28;20022;-90
2023/11/03 04:09:38;;;;;;;4.05;1.25;;;8.70;99.90;;;;;;5002334;28;20023;-89
2023/11/03 04:12:04;;;;;;;6.65;1.80;;;8.70;99.90;;;;;;5009924;28;20493;-90
2023/11/03 04:14:30;;;;;;;3.35;1.10;;;8.70;99.90;;;;;;5007786;28;20033;-90
2023/11/03 04:16:56;;;;;;;4.70;1.20;;;8.80;99.90;;;;;;5003759;28;20037;-89
2023/11/03 04:19:22;;;;;;;4.78;1.73;;;8.70;99.90;;;;;;5005648;28;20057;-89
2023/11/03 04:21:48;;;;;;;6.25;1.45;;;8.70;99.90;;;;;;5025424;28;20026;-89
2023/11/03 04:24:13;;;;;;;5.80;1.35;;;8.80;99.90;;;;;;5012213;28;20848;-89
2023/11/03 04:26:39;;;;;;;4.40;1.35;;;8.80;99.90;;;;;;5011488;28;20034;-89
2023/11/03 04:29:05;;;;;;;4.60;1.40;;;8.70;99.90;;;;;;5026960;28;20018;-90
2023/11/03 04:31:31;;;;;;;7.32;1.77;;;8.70;99.90;;;;;;5012770;28;20026;-91
2023/11/03 04:33:56;;;;;;;5.68;1.50;;;8.60;99.90;;;;;;5018378;28;20120;-89
2023/11/03 04:36:22;;;;;;;8.77;1.42;;;8.60;99.90;;;;;;5012165;28;20030;-90
2023/11/03 04:38:47;;;;;;;7.03;1.38;;;8.50;99.90;;;;;;5021759;28;20023;-90
2023/11/03 04:41:13;;;;;;;7.68;1.40;;;8.50;99.90;;;;;;5002685;28;20017;-90
2023/11/03 04:43:40;;;;;;;5.05;1.33;;;8.60;99.90;;;;;;5028601;28;20058;-90
2023/11/03 04:46:08;;;;;;;6.45;1.40;;;8.50;99.90;;;;;;5026384;28;20109;-90
2023/11/03 04:48:35;;;;;;;4.47;1.20;;;8.50;99.90;;;;;;5026747;28;20049;-89
2023/11/03 04:51:01;;;;;;;6.05;1.40;;;8.40;99.90;;;;;;5031357;28;20037;-90
2023/11/03 04:53:27;;;;;;;7.28;1.85;;;8.50;99.90;;;;;;4999779;28;20455;-90
2023/11/03 04:55:53;;;;;;;4.90;1.30;;;8.40;99.90;;;;;;5028345;28;20030;-89
2023/11/03 04:58:19;;;;;;;9.07;1.83;;;8.30;99.90;;;;;;5005895;28;20029;-91
2023/11/03 05:00:46;;;;;;;6.95;1.48;;;8.30;99.90;;;;;;5016435;28;20025;-89
2023/11/03 05:03:12;;;;;;;10.13;1.30;;;8.30;99.90;;;;;;5012436;28;20026;-89
2023/11/03 05:05:38;;;;;;;10.32;1.40;;;8.30;99.90;;;;;;5016627;28;20022;-89
2023/11/03 05:08:04;;;;;;;6.43;1.35;;;8.20;99.90;;;;;;5021997;28;20049;-89
2023/11/03 05:10:30;;;;;;;10.93;2.13;;;8.20;99.90;;;;;;5016163;28;20026;-90
2023/11/03 05:12:56;;;;;;;8.77;1.50;;;8.30;99.90;;;;;;5029273;28;20627;-90
2023/11/03 05:15:21;;;;;;;4.80;1.25;;;8.30;99.90;;;;;;5030760;28;20060;-90
2023/11/03 05:17:47;;;;;;;6.07;1.58;;;8.30;99.90;;;;;;5016268;28;20022;-90
2023/11/03 05:20:13;;;;;;;6.20;1.13;;;8.30;99.90;;;;;;4999742;28;20528;-90
2023/11/03 05:22:39;;;;;;;7.18;1.58;;;8.30;99.90;;;;;;5007050;28;20030;-89
2023/11/03 05:25:06;;;;;;;5.45;1.50;;;8.30;99.90;;;;;;5007113;28;20084;-90
2023/11/03 05:27:32;;;;;;;6.55;1.88;;;8.30;99.90;;;;;;5028402;28;20032;-90
2023/11/03 05:29:58;;;;;;;3.45;1.27;;;8.30;99.90;;;;;;5029806;28;20630;-90
2023/11/03 05:32:25;;;;;;;5.05;1.63;;;8.40;99.90;;;;;;5025480;28;20026;-89
2023/11/03 05:34:50;;;;;;;5.50;1.45;;;8.50;99.90;;;;;;5026977;28;20076;-90
2023/11/03 05:37:16;;;;;;;7.75;1.35;;;8.60;99.90;;;;;;5006058;28;20763;-89
2023/11/03 05:39:42;;;;;;;6.22;1.55;;;8.60;99.90;;;;;;5029981;28;20180;-89
2023/11/03 05:42:07;;;;;;;7.72;1.50;;;8.70;99.90;;;;;;5015220;28;20026;-89
2023/11/03 05:44:33;;;;;;;7.72;1.77;;;8.70;99.90;;;;;;5014626;28;20030;-88
2023/11/03 05:47:00;;;;;;;10.00;2.30;;;8.70;99.90;;;;;;5006544;28;20042;-90
2023/11/03 05:49:27;;;;;;;11.35;1.70;;;8.70;99.90;;;;;;5054219;28;20039;-89
2023/11/03 05:51:53;;;;;;;7.68;1.38;;;8.70;99.90;;;;;;5049684;28;20028;-89
2023/11/03 05:54:19;;;;;;;4.47;1.38;;;8.70;99.90;;;;;;5053363;28;20029;-90
2023/11/03 05:56:44;;;;;;;8.27;1.90;;;8.70;99.90;;;;;;5053793;28;20061;-90
2023/11/03 05:59:11;;;;;;;9.45;1.52;;;8.70;99.90;;;;;;5054253;28;20108;-88
2023/11/03 06:01:36;;;;;;;11.52;1.92;;;8.70;99.90;;;;;;5027881;28;20027;-88
2023/11/03 06:04:02;;;;;;;6.10;1.60;;;8.60;99.90;;;;;;5051197;28;20029;-88
2023/11/03 06:06:28;;;;;;;9.55;2.10;;;8.70;99.90;;;;;;5050993;28;20026;-89
2023/11/03 06:08:55;;;;;;;7.28;1.52;;;8.70;99.90;;;;;;5054242;28;20025;-89
2023/11/03 06:11:22;;;;;;;6.72;1.40;;;8.70;99.90;;;;;;5053133;28;20029;-88
2023/11/03 06:13:48;;;;;;;5.50;1.30;;;8.70;99.90;;;;;;5052654;28;20033;-90
2023/11/03 06:16:13;;;;;;;7.50;1.65;;;8.70;99.90;;;;;;5051098;28;20028;-87
2023/11/03 06:18:41;;;;;;;8.02;1.50;;;8.80;99.90;;;;;;5051705;28;20037;-89
2023/11/03 06:21:07;;;;;;;3.50;1.30;;;8.70;99.90;;;;;;5052064;28;20036;-91
2023/11/03 06:23:33;;;;;;;10.68;1.65;;;8.70;99.90;;;;;;5045316;28;20029;-90
2023/11/03 06:25:58;;;;;;;7.30;1.63;;;8.70;99.90;;;;;;5052358;28;20066;-89
2023/11/03 06:28:24;;;;;;;11.98;2.47;;;8.70;99.90;;;;;;5044441;28;20026;-88
2023/11/03 06:30:50;;;;;;;9.27;1.90;;;8.60;99.90;;;;;;5051938;28;20417;-88
2023/11/03 06:33:16;;;;;;;7.97;1.80;;;8.70;99.90;;;;;;5055701;28;20051;-89
2023/11/03 06:35:41;;;;;;;7.13;1.65;;;8.60;99.90;;;;;;5034292;28;20037;-89
2023/11/03 06:38:07;;;;;;;5.80;1.60;;;8.50;99.90;;;;;;5043344;28;20460;-88
2023/11/03 06:40:33;;;;;;;8.77;1.80;;;8.60;99.90;;;;;;5036668;28;20033;-89
2023/11/03 06:42:59;;;;;;;9.90;1.83;;;8.50;99.90;;;;;;5035965;28;20029;-89
2023/11/03 06:45:25;;;;;;;10.43;2.85;;;8.40;99.90;;;;;;5050474;28;20449;-88
2023/11/03 06:47:51;;;;;;;11.25;2.00;;;8.40;99.90;;;;;;5024403;28;20050;-89
2023/11/03 06:50:16;;;;;;;11.48;1.80;;;8.50;99.90;;;;;;5048001;28;20047;-88
2023/11/03 06:52:42;;;;;;;8.10;1.80;;;8.40;99.90;;;;;;5053894;28;20521;-88
2023/11/03 06:55:08;;;;;;;7.63;1.92;;;8.40;99.90;;;;;;5036532;28;20044;-89
2023/11/03 06:57:35;;;;;;;11.15;2.00;;;8.40;99.90;;;;;;5041033;28;20117;-87
2023/11/03 07:00:01;;;;;;;6.30;1.73;;;8.40;99.90;;;;;;5056785;28;20039;-89
2023/11/03 07:02:26;;;;;;;12.57;2.78;;;8.40;99.90;;;;;;5048502;28;20041;-89
2023/11/03 07:04:52;;;;;;;8.90;1.92;;;8.50;99.90;;;;;;5045201;28;20021;-90
2023/11/03 07:07:18;;;;;;;9.25;1.88;;;8.50;99.90;;;;;;5033703;28;20026;-89
2023/11/03 07:09:44;;;;;;;8.30;2.03;;;8.60;99.90;;;;;;5051208;28;20087;-89
2023/11/03 07:12:11;;;;;;;7.85;2.10;;;8.70;99.90;;;;;;5051435;28;20112;-89
2023/11/03 07:14:37;;;;;;;10.68;1.90;;;8.70;99.90;;;;;;5043069;28;20060;-89
2023/11/03 07:17:02;;;;;;;8.07;1.80;;;8.70;99.90;;;;;;5047021;28;20025;-88
2023/11/03 07:19:28;;;;;;;11.27;2.42;;;8.90;99.90;;;;;;5035855;28;20033;-90
2023/11/03 07:21:54;;;;;;;7.63;2.40;;;8.80;99.90;;;;;;5054154;28;20333;-90
2023/11/03 07:24:23;;;;;;;10.48;2.63;;;8.90;99.90;;;;;;5025492;28;20017;-90
2023/11/03 07:26:52;;;;;;;11.25;2.20;;;8.90;99.90;;;;;;5041775;28;20457;-90
2023/11/03 07:29:18;;;;;;;8.88;2.28;;;9.00;99.90;;;;;;5047190;28;20029;-90
2023/11/03 07:31:45;;;;;;;6.50;1.77;;;9.00;99.90;;;;;;5048884;28;20033;-89
2023/11/03 07:34:11;;;;;;;7.32;2.03;;;9.00;99.90;;;;;;5047095;28;20113;-90
2023/11/03 07:36:37;;;;;;;11.02;2.20;;;9.00;99.90;;;;;;5044548;28;20025;-90
2023/11/03 07:39:05;;;;;;;8.32;1.77;;;9.00;99.90;;;;;;5048245;28;20033;-89
2023/11/03 07:41:34;;;;;;;12.30;2.10;;;9.00;99.90;;;;;;5047816;28;20067;-90
2023/11/03 07:44:00;;;;;;;9.50;2.38;;;9.00;99.90;;;;;;5048316;28;20029;-88
2023/11/03 07:46:27;;;;;;;9.13;1.67;;;9.20;99.90;;;;;;5028625;28;20028;-88
2023/11/03 07:48:53;;;;;;;7.43;1.75;;;9.30;99.90;;;;;;5049281;28;20137;-91
2023/11/03 07:51:21;;;;;;;9.77;2.13;;;9.40;99.90;;;;;;5050392;28;20021;-90
2023/11/03 07:53:47;;;;;;;6.30;1.73;;;9.50;99.90;;;;;;5053203;28;20037;-88
2023/11/03 07:56:13;;;;;;;8.75;1.85;;;9.60;99.90;;;;;;5046399;28;20035;-91
2023/11/03 07:58:39;;;;;;;7.00;1.80;;;9.50;99.90;;;;;;5033338;28;20548;-90
2023/11/03 08:01:05;;;;;;;7.20;1.60;;;9.60;99.90;;;;;;5048422;28;20082;-87
2023/11/03 08:03:31;;;;;;;8.65;1.90;;;9.60;99.90;;;;;;5030942;28;20492;-89
2023/11/03 08:05:58;;;;;;;10.80;1.67;;;9.60;99.90;;;;;;5032414;28;20056;-88
2023/11/03 08:08:25;;;;;;;6.35;1.52;;;9.60;99.90;;;;;;5032686;28;20021;-90
2023/11/03 08:10:52;;;;;;;7.70;1.65;;;9.60;99.90;;;;;;5032707;28;20543;-89
2023/11/03 08:13:22;;;;;;;9.95;2.33;;;9.70;99.90;;;;;;5049188;28;20053;-88
2023/11/03 08:15:48;;;;;;;7.82;1.90;;;9.70;99.90;;;;;;5033584;28;20024;-87
2023/11/03 08:18:14;;;;;;;6.15;1.73;;;9.70;99.90;;;;;;5047036;28;20024;-88
2023/11/03 08:20:42;;;;;;;8.02;1.58;;;9.70;99.90;;;;;;5047921;28;20036;-89
2023/11/03 08:23:09;;;;;;;10.02;1.90;;;9.60;99.90;;;;;;5020556;28;20404;-88
2023/11/03 08:25:35;;;;;;;10.10;1.60;;;9.60;99.90;;;;;;5044047;28;20025;-88
2023/11/03 08:28:01;;;;;;;9.15;1.90;;;9.60;99.90;;;;;;5045707;28;20104;-89
2023/11/03 08:30:27;;;;;;;6.93;1.75;;;9.50;99.90;;;;;;5031276;28;20028;-89
2023/11/03 08:32:54;;;;;;;6.03;1.52;;;9.50;99.90;;;;;;5049651;28;20021;-92
2023/11/03 08:35:21;;;;;;;6.22;1.35;;;9.50;99.90;;;;;;5044884;28;20021;-88
2023/11/03 08:37:48;;;;;;;9.40;1.83;;;9.50;99.90;;;;;;5049332;28;20025;-88
2023/11/03 08:40:16;;;;;;;8.77;1.77;;;9.60;99.90;;;;;;5047830;28;20395;-88
2023/11/03 08:42:46;;;;;;;7.55;1.75;;;9.60;99.90;;;;;;5050993;28;20554;-88
2023/11/03 08:45:15;;;;;;;7.82;1.35;;;9.60;99.90;;;;;;5044562;28;20037;-89
2023/11/03 08:47:43;;;;;;;7.40;1.38;;;9.60;99.90;;;;;;5050026;28;20056;-88
2023/11/03 08:50:19;;;;;;;12.63;1.92;;;9.60;99.90;;;;;;5033221;28;20033;-88
2023/11/03 08:52:47;;;;;;;5.65;1.60;;;9.60;99.90;;;;;;5044179;28;20025;-88
2023/11/03 08:55:13;;;;;;;6.70;1.50;;;9.70;99.90;;;;;;5044848;28;20060;-89
2023/11/03 08:57:41;;;;;;;7.68;1.63;;;9.70;99.90;;;;;;5046242;28;20435;-87
2023/11/03 09:00:13;;;;;;;5.95;1.50;;;9.70;99.90;;;;;;5029938;28;20060;-88
2023/11/03 09:02:44;;;;;;;11.85;1.80;;;9.70;99.90;;;;;;5033257;28;20071;-88
2023/11/03 09:05:11;;;;;;;6.47;1.70;;;9.80;99.90;;;;;;5044995;28;20373;-89
2023/11/03 09:07:38;;;;;;;11.23;2.45;;;9.70;99.90;;;;;;5047213;28;20041;-88
2023/11/03 09:10:06;;;;;;;4.68;1.30;;;9.70;99.90;;;;;;5027007;28;20025;-89
2023/11/03 09:12:35;;;;;;;7.10;1.60;;;9.70;99.90;;;;;;5050860;28;20021;-91
2023/11/03 09:15:08;;;;;;;9.85;1.60;;;9.70;99.90;;;;;;5049653;28;20506;-89
2023/11/03 09:17:35;;;;;;;10.80;2.33;;;9.70;99.90;;;;;;5049758;28;20124;-91
2023/11/03 09:20:04;;;;;;;7.18;1.92;;;9.60;99.90;;;;;;5043400;28;20116;-91
2023/11/03 09:22:30;;;;;;;10.43;1.92;;;9.60;99.90;;;;;;5049229;28;20036;-92
2023/11/03 09:25:00;;;;;;;8.68;1.77;;;9.60;99.90;;;;;;5050303;28;20485;-91
2023/11/03 09:27:26;;;;;;;9.75;1.70;;;9.50;99.90;;;;;;5050361;28;20086;-88
2023/11/03 09:29:52;;;;;;;9.32;2.10;;;9.50;99.90;;;;;;5046360;28;20033;-91
2023/11/03 09:32:18;;;;;;;7.47;1.92;;;9.50;99.90;;;;;;5049114;28;20043;-91
2023/11/03 09:34:46;;;;;;;7.63;1.77;;;9.50;99.90;;;;;;5054520;28;20087;-91
2023/11/03 09:37:12;;;;;;;11.07;1.88;;;9.50;99.90;;;;;;5052392;28;20401;-92
2023/11/03 09:39:39;;;;;;;7.07;1.65;;;9.50;99.90;;;;;;5035963;28;20028;-89
2023/11/03 09:42:06;;;;;;;9.02;1.88;;;9.50;99.90;;;;;;5052494;28;20024;-91
2023/11/03 09:44:32;;;;;;;8.77;2.40;;;9.60;99.90;;;;;;5051514;28;20089;-92
2023/11/03 09:47:01;;;;;;;10.10;3.25;;;9.60;99.90;;;;;;5053568;28;20021;-91
2023/11/03 09:49:30;;;;;;;10.57;2.27;;;9.60;99.90;;;;;;5053531;28;20056;-91
2023/11/03 09:52:09;;;;;;;8.50;2.35;;;9.60;99.90;;;;;;5051836;28;20293;-90
2023/11/03 09:54:35;;;;;;;14.45;2.25;;;9.60;99.90;;;;;;5051770;28;20029;-90
2023/11/03 09:57:08;;;;;;;10.75;2.10;;;9.60;99.90;;;;;;5034064;28;20041;-91
2023/11/03 09:59:36;;;;;;;12.48;2.40;;;9.60;99.90;;;;;;5054318;28;20025;-91
2023/11/03 10:02:09;;;;;;;5.10;1.73;;;9.60;99.90;;;;;;5046749;28;20403;-91
2023/11/03 10:04:42;;;;;;;9.00;1.90;;;9.60;99.90;;;;;;5033643;28;20035;-91
2023/11/03 10:07:12;;;;;;;9.27;1.85;;;9.70;99.90;;;;;;5052166;28;20676;-89
2023/11/03 10:09:42;;;;;;;7.65;1.50;;;9.70;99.90;;;;;;5036698;28;20476;-90
2023/11/03 10:12:15;;;;;;;;;;;9.70;99.90;;;;;;5053242;28;20097;-90
2023/11/03 10:14:41;;;;;;;8.98;2.40;;;9.70;99.90;;;;;;5034046;28;19908;-90
2023/11/03 10:17:10;;;;;;;10.70;2.05;;;9.80;99.90;;;;;;5048961;28;20029;-90
2023/11/03 10:19:36;;;;;;;9.27;2.13;;;9.90;99.90;;;;;;5050238;28;20446;-90
2023/11/03 10:22:08;;;;;;;7.28;1.65;;;10.00;99.90;;;;;;5053544;28;20041;-90
2023/11/03 10:24:35;;;;;;;7.13;1.60;;;10.10;99.90;;;;;;5051211;28;20028;-89
2023/11/03 10:27:01;;;;;;;7.18;1.60;;;10.20;99.90;;;;;;5050817;28;20169;-90
2023/11/03 10:29:27;;;;;;;6.68;2.10;;;10.30;99.90;;;;;;5035923;28;20059;-90
2023/11/03 10:31:53;;;;;;;7.35;1.80;;;10.50;99.90;;;;;;5049441;28;20036;-90
2023/11/03 10:34:20;;;;;;;9.25;1.70;;;10.70;99.90;;;;;;5050702;28;20112;-90
2023/11/03 10:36:51;;;;;;;8.95;1.70;;;11.30;99.90;;;;;;5031650;28;20174;-89
2023/11/03 10:39:19;;;;;;;9.48;1.67;;;12.20;99.90;;;;;;5051091;28;20025;-89
2023/11/03 10:41:45;;;;;;;6.90;1.70;;;12.90;99.30;;;;;;5033978;28;20025;-89
2023/11/03 10:44:21;;;;;;;12.85;1.88;;;13.10;98.50;;;;;;5031658;28;20396;-89
2023/11/03 10:46:58;;;;;;;15.15;2.70;;;13.40;95.80;;;;;;5028775;28;20030;-89
2023/11/03 10:49:32;;;;;;;8.18;1.73;;;13.50;96.00;;;;;;5046129;28;20025;-90
2023/11/03 10:52:13;;;;;;;7.35;1.70;;;13.40;94.90;;;;;;5034424;28;20021;-90
2023/11/03 10:54:57;;;;;;;7.57;1.73;;;13.20;94.80;;;;;;5049307;28;20037;-87
2023/11/03 10:57:24;;;;;;;6.68;1.63;;;13.00;96.00;;;;;;5047659;28;20029;-89
2023/11/03 10:59:57;;;;;;;7.07;1.70;;;13.20;95.00;;;;;;5035312;28;20036;-89
2023/11/03 11:02:38;;;;;;;14.43;2.85;;;13.30;93.90;;;;;;5031810;28;20036;-88
2023/11/03 11:05:07;;;;;;;10.73;1.98;;;13.50;94.40;;;;;;5048847;28;20048;-89
2023/11/03 11:07:35;;;;;;;11.52;1.70;;;13.60;93.80;;;;;;5051161;28;20055;-88
2023/11/03 11:10:01;;;;;;;7.38;1.52;;;13.70;92.70;;;;;;5051486;28;20104;-89
2023/11/03 11:12:51;;;;;;;12.25;1.90;;;13.90;91.70;;;;;;5050547;28;20154;-89
2023/11/03 11:15:19;;;;;;;7.53;1.50;;;14.10;91.90;;;;;;5031488;28;20489;-89
2023/11/03 11:17:46;;;;;;;6.20;1.40;;;14.50;90.50;;;;;;5030137;28;20327;-89
2023/11/03 11:20:17;;;;;;;6.80;1.55;;;14.60;86.80;;;;;;5047873;28;20053;-89
2023/11/03 11:22:47;;;;;;;6.72;1.35;;;14.60;89.80;;;;;;5050282;28;20025;-89
2023/11/03 11:25:16;;;;;;;9.18;1.98;;;14.80;85.50;;;;;;5049117;28;20021;-88
2023/11/03 11:27:49;;;;;;;9.52;1.35;;;14.70;85.40;;;;;;5041220;28;20033;-88
2023/11/03 11:30:15;;;;;;;8.77;1.70;;;14.80;87.20;;;;;;5047763;28;20017;-89
2023/11/03 11:32:54;;;;;;;11.98;2.13;;;14.70;88.00;;;;;;5033922;28;20032;-90
2023/11/03 11:35:23;;;;;;;10.77;1.88;;;14.80;86.00;;;;;;5032844;28;20044;-89
2023/11/03 11:37:49;;;;;;;6.82;1.73;;;14.70;86.70;;;;;;5045049;28;20033;-89
2023/11/03 11:40:15;;;;;;;8.95;1.95;;;14.60;86.20;;;;;;5049122;28;20439;-89
2023/11/03 11:42:42;;;;;;;10.07;1.90;;;14.70;87.20;;;;;;5049310;28;20497;-89
2023/11/03 11:45:14;;;;;;;6.95;1.58;;;14.90;85.70;;;;;;5038341;28;20021;-89
2023/11/03 11:47:45;;;;;;;11.18;2.10;;;15.00;83.70;;;;;;5025460;28;20049;-88
2023/11/03 11:50:16;;;;;;;8.60;1.88;;;14.60;85.20;;;;;;5045491;28;20448;-89
2023/11/03 11:52:49;;;;;;;9.50;2.40;;;14.70;86.40;;;;;;5029017;28;20033;-89
2023/11/03 11:55:16;;;;;;;6.32;2.00;;;14.90;84.70;;;;;;5031033;28;20024;-89
2023/11/03 11:57:43;;;;;;;13.95;2.20;;;14.80;82.30;;;;;;5049862;28;20031;-89
2023/11/03 12:00:12;;;;;;;9.90;2.10;;;14.50;85.50;;;;;;5050315;28;20049;-88
2023/11/03 12:02:39;;;;;;;10.82;1.80;;;14.50;86.40;;;;;;5046611;28;20044;-89
2023/11/03 12:05:06;;;;;;;9.60;2.10;;;14.80;84.90;;;;;;5045007;28;20097;-89
2023/11/03 12:07:33;;;;;;;10.93;1.80;;;15.00;84.20;;;;;;5050057;28;20055;-89
2023/11/03 12:09:59;;;;;;;12.52;1.92;;;15.10;83.60;;;;;;5031538;28;20032;-89
2023/11/03 12:12:25;;;;;;;6.80;1.58;;;15.00;84.10;;;;;;5044024;28;20063;-89
2023/11/03 12:14:52;;;;;;;12.75;2.13;;;15.00;83.60;;;;;;5031381;28;20111;-89
2023/11/03 12:17:21;;;;;;;9.00;1.85;;;14.60;85.40;;;;;;5045584;28;20052;-90
2023/11/03 12:19:51;;;;;;;10.13;2.07;;;14.40;86.70;;;;;;5047799;28;20037;-88
2023/11/03 12:22:20;;;;;;;8.40;2.22;;;14.20;88.00;;;;;;5039952;28;20029;-88
2023/11/03 12:24:50;;;;;;;7.95;1.63;;;14.30;86.40;;;;;;5042287;28;20065;-89
2023/11/03 12:27:19;;;;;;;9.77;2.03;;;14.50;86.20;;;;;;5045638;28;20112;-88
2023/11/03 12:29:45;;;;;;;12.02;2.20;;;14.40;87.00;;;;;;5048783;28;20021;-88
2023/11/03 12:32:12;;;;;;;11.75;2.58;;;14.60;88.10;;;;;;5047684;28;20021;-88
2023/11/03 12:34:40;;;;;;;4.47;1.02;;;15.20;86.30;;;;;;5030068;28;20057;-88
2023/11/03 12:37:05;;;;;;;10.30;2.10;;;15.50;83.80;;;;;;5031254;28;20025;-88
2023/11/03 12:39:46;;;;;;;7.55;1.60;;;15.70;83.40;;;;;;5029739;28;20029;-88
2023/11/03 12:42:12;;;;;;;8.10;1.70;;;15.40;82.40;;;;;;5046134;28;20037;-88
2023/11/03 12:44:59;;;;;;;7.15;1.60;;;15.20;83.30;;;;;;5028386;28;20025;-88
2023/11/03 12:47:49;;;;;;;6.85;1.75;;;15.00;85.00;;;;;;5028738;28;20245;-88
2023/11/03 12:50:18;;;;;;;6.43;1.35;;;14.90;84.20;;;;;;5048150;28;20036;-89
2023/11/03 12:53:03;;;;;;;7.57;1.50;;;14.90;84.60;;;;;;5027734;28;20075;-89